Terminal Aerodrome Forecast
Issued by NWS

Home | Current Version | Previous Version | Text Only | Print | Product List | Glossary On
Versions: 1 2 3 4 5 6 7 8 9 10 11 12 13 14
000
FTUS46 KMTR 012300
TAFSNS
TAF
KSNS 012326Z 0200/0224 28010KT P6SM FEW030 SCT040
     FM020300 29004KT P6SM FEW015
     FM020500 00000KT P6SM FEW007
     FM021000 11008KT P6SM FEW005 FEW100
     FM022000 27009KT P6SM VCSH SCT040 BKN100=

USA.gov is the U.S. government's official web portal to all federal, state and local government web resources and services.